Terminal Aerodrome Forecast
Issued by NWS

Home | Current Version | Previous Version | Text Only | Print | Product List | Glossary On
Versions: 1 2 3 4 5 6 7 8 9 10 11 12 13 14 15 16 17 18 19 20 21 22 23 24 25 26 27 28
000
FTUS45 KBOU 290353 AAC
TAFBJC
TAF AMD
KBJC 290353Z 2904/2924 02012G22KT 2SM -SN BR BKN006 OVC010
      TEMPO 2904/2907 1SM -SN BR BKN004
     FM290700 01014KT 3SM -SN BR OVC007
     FM291500 36007KT 4SM -SN BR OVC008
     FM292000 01014G22KT 5SM -SHSN BR SCT011 OVC020=

USA.gov is the U.S. government's official web portal to all federal, state and local government web resources and services.